Ljuta — J8B4127 — position and weather

sailwx.info

Track history (hours):
 
Tides and Currents Weather Stations Pressure Air Temp Water Temp Dewpoint Dewpoint Depression Visibility Wind Speed Wind Dir Waves Ship Positions

Ljuta

Last reported at 2016-Feb-06 09:33 UTC. Time now 2016-Feb-12 05:39 UTC.
Position N 36°04' W 005°15'.

Length 177 m; draft 9 m.

Type: Cargo ship. MMSI: 377715000.

Date/timePositionNaut miles runAvg speedWind from/ knotsBaromVisibWave heightAir tempDewpointWater temp
2016-Feb-06 09:33N 36°04' W 005°15'8 8.3
2016-Feb-06 08:32N 36°06' W 005°25'0 0.1
2016-Feb-06 07:32N 36°06' W 005°25'0 0.0
2016-Feb-06 06:32N 36°06' W 005°25'0 0.0
2016-Feb-06 05:29N 36°06' W 005°25'0 0.1
2016-Feb-06 04:32N 36°06' W 005°25'0 0.0
2016-Feb-06 03:32N 36°06' W 005°25'0 0.0
2016-Feb-06 02:32N 36°06' W 005°25'0 0.0
2016-Feb-06 01:32N 36°06' W 005°25'0 0.0
2016-Feb-06 00:32N 36°06' W 005°25'0 0.0
2016-Feb-05 23:32N 36°06' W 005°25'0 0.0
2016-Feb-05 22:32N 36°06' W 005°25'0 0.0
2016-Feb-05 21:32N 36°06' W 005°25'0 0.4
2016-Feb-05 20:33N 36°06' W 005°25'7 6.6
2016-Feb-05 19:34N 36°05' W 005°17'5 0.1
2016-Feb-04 00:33N 36°06' W 005°10'9 9.4
2016-Feb-03 23:33N 36°06' W 005°22'2 0.9
2016-Feb-03 21:16N 36°06' W 005°24'0 0.1
2016-Feb-03 20:31N 36°06' W 005°24'0 0.1
2016-Feb-03 19:31N 36°06' W 005°24'0 0.1
2016-Feb-03 17:22N 36°06' W 005°24'0 0.1
2016-Feb-03 16:29N 36°06' W 005°24'4 4.6
2016-Feb-03 15:34N 36°02' W 005°24'8313.6
2016-Feb-03 09:26N 36°06' W 007°07'4113.8
2016-Feb-03 06:25N 36°16' W 007°57'1414.5
2016-Feb-03 05:28N 36°19' W 008°13'2613.2
2016-Feb-03 03:31N 36°26' W 008°44'1414.1
2016-Feb-03 02:31N 36°30' W 009°01'1413.0
2016-Feb-03 01:28N 36°34' W 009°17'1313.3
2016-Feb-03 00:31N 36°43' W 009°28'1313.2
2016-Feb-02 23:31N 36°55' W 009°36'1312.6
2016-Feb-02 22:28N 37°08' W 009°39'1514.6
2016-Feb-02 21:28N 37°22' W 009°43'1313.9
2016-Feb-02 20:34N 37°35' W 009°47'1413.5
2016-Feb-02 19:31N 37°48' W 009°50'1514.1
2016-Feb-02 18:25N 38°03' W 009°55'1112.4
2016-Feb-02 17:33N 38°14' W 009°58'1414.2
2016-Feb-02 16:33N 38°28' W 010°02'1414.0
2016-Feb-02 15:33N 38°42' W 010°06'1414.0
2016-Feb-02 14:33N 38°55' W 010°07'1414.0
2016-Feb-02 13:33N 39°09' W 010°07'1413.8
2016-Feb-02 12:33N 39°23' W 010°07'1914.9
2016-Feb-02 11:19N 39°42' W 010°07'912.3
2016-Feb-02 10:33N 39°51' W 010°07'1514.3
2016-Feb-02 09:31N 40°06' W 010°07'1414.1
2016-Feb-02 08:31N 40°20' W 010°07'1414.2
2016-Feb-02 07:31N 40°34' W 010°07'1413.4
2016-Feb-02 06:28N 40°48' W 010°07'1513.1
2016-Feb-02 05:20N 41°03' W 010°07'1113.7
2016-Feb-02 04:32N 41°14' W 010°08'1514.6
2016-Feb-02 03:31N 41°29' W 010°08'1413.1
2016-Feb-02 02:28N 41°42' W 010°09'1313.7
2016-Feb-02 01:33N 41°55' W 010°09'  
2016-Jan-30 12:32N 50°26' W 000°30'9 9.6
2016-Jan-30 11:33N 50°30' W 000°17'1110.3
2016-Jan-30 10:31N 50°33' W 000°00'1111.1
2016-Jan-30 09:33N 50°36' E 000°16'1211.9
2016-Jan-30 08:33N 50°39' E 000°34'1211.7
2016-Jan-30 07:33N 50°45' E 000°49'1111.0
2016-Jan-30 06:32N 50°52' E 001°03'9 9.6
2016-Jan-30 05:33N 50°58' E 001°15'7 7.4
2016-Jan-30 04:33N 51°03' E 001°23'6 6.4
2016-Jan-30 03:33N 51°07' E 001°32'7 7.0
2016-Jan-30 02:33N 51°11' E 001°41'9 8.6
2016-Jan-30 01:33N 51°18' E 001°49'1110.9
2016-Jan-30 00:33N 51°29' E 001°51'1212.1
2016-Jan-29 23:33N 51°40' E 001°46'1211.6
2016-Jan-29 22:33N 51°51' E 001°40'7 6.6
2016-Jan-29 21:33N 51°47' E 001°32'1312.8
2016-Jan-29 20:34N 51°37' E 001°19'1413.5
2016-Jan-29 19:33N 51°30' E 001°00'1413.7
2016-Jan-29 18:34N 51°30' E 000°39'1110.7
2016-Jan-29 17:34N 51°27' E 000°22'2 1.7
2016-Jan-29 16:34N 51°28' E 000°20'0 0.0
2016-Jan-29 15:34N 51°28' E 000°20'0 0.0
2016-Jan-29 14:34N 51°28' E 000°20'0 0.0
2016-Jan-29 13:34N 51°28' E 000°20'0 0.0
2016-Jan-29 12:34N 51°28' E 000°20'0 0.0
2016-Jan-29 11:34N 51°28' E 000°20'0 0.0
2016-Jan-29 10:34N 51°28' E 000°20'0 0.0
2016-Jan-29 09:34N 51°28' E 000°20'0 0.0
2016-Jan-29 08:33N 51°28' E 000°20'0 0.0
2016-Jan-29 07:34N 51°28' E 000°20'0 0.0
2016-Jan-29 06:34N 51°28' E 000°20'0 0.0
2016-Jan-29 05:34N 51°28' E 000°20'0 0.0
2016-Jan-29 04:33N 51°28' E 000°20'0 0.0
2016-Jan-29 03:33N 51°28' E 000°20'0 0.0
2016-Jan-29 02:34N 51°28' E 000°20'0 0.0
2016-Jan-29 01:34N 51°28' E 000°20'0 0.0
2016-Jan-29 00:33N 51°28' E 000°20'0 0.0
2016-Jan-28 23:34N 51°28' E 000°20'0 0.0
2016-Jan-28 22:34N 51°28' E 000°20'0 0.0
2016-Jan-28 21:34N 51°28' E 000°20'0 0.0
2016-Jan-28 20:34N 51°28' E 000°20'0 0.0
2016-Jan-28 19:33N 51°28' E 000°20'0 0.0
2016-Jan-28 18:34N 51°28' E 000°20'0 0.0
2016-Jan-28 17:34N 51°28' E 000°20'0 0.0
2016-Jan-28 16:34N 51°28' E 000°20'0 0.0
2016-Jan-28 15:34N 51°28' E 000°20'0 0.0
2016-Jan-28 14:34N 51°28' E 000°20'0 0.0
2016-Jan-28 13:34N 51°28' E 000°20'0 0.0
2016-Jan-28 12:34N 51°28' E 000°20'0 0.0
2016-Jan-28 11:34N 51°28' E 000°20'0 0.0
2016-Jan-28 10:34N 51°28' E 000°20'0 0.0
2016-Jan-28 09:34N 51°28' E 000°20'0 0.0
2016-Jan-28 08:34N 51°28' E 000°20'0 0.0
2016-Jan-28 07:34N 51°28' E 000°20'0 0.0
2016-Jan-28 06:34N 51°28' E 000°20'0 0.0
2016-Jan-28 05:34N 51°28' E 000°20'0 0.0
2016-Jan-28 04:34N 51°28' E 000°20'0 0.0
2016-Jan-28 03:34N 51°28' E 000°20'0 0.0
2016-Jan-28 02:34N 51°28' E 000°20'0 0.0
2016-Jan-28 01:33N 51°28' E 000°20'0 0.0
2016-Jan-28 00:33N 51°28' E 000°20'0 0.0
2016-Jan-27 23:34N 51°28' E 000°20'0 0.0
2016-Jan-27 22:34N 51°28' E 000°20'0 0.0
2016-Jan-27 21:34N 51°28' E 000°20'0 0.0
2016-Jan-27 20:34N 51°28' E 000°20'0 0.0
2016-Jan-27 19:34N 51°28' E 000°20'0 0.0
2016-Jan-27 18:34N 51°28' E 000°20'0 0.0
2016-Jan-27 17:33N 51°28' E 000°20'0 0.0
2016-Jan-27 16:33N 51°28' E 000°20'0 0.0
2016-Jan-27 15:34N 51°28' E 000°20'0 0.0
2016-Jan-27 14:34N 51°28' E 000°20'0 0.0
2016-Jan-27 13:34N 51°28' E 000°20'0 0.0
2016-Jan-27 12:34N 51°28' E 000°20'0 0.0
2016-Jan-27 11:34N 51°28' E 000°20'0 0.0
2016-Jan-27 10:34N 51°28' E 000°20'0 0.0
2016-Jan-27 09:33N 51°28' E 000°20'  
Track history (hours):
 
Tides and Currents Weather Stations Pressure Air Temp Water Temp Dewpoint Dewpoint Depression Visibility Wind Speed Wind Dir Waves Ship Positions

Ljuta

Last reported at 2016-Feb-06 09:33 UTC. Time now 2016-Feb-12 05:39 UTC.
Position N 36°04' W 005°15'.

Length 177 m; draft 9 m.

Type: Cargo ship. MMSI: 377715000.

Date/timePositionNaut miles runAvg speedWind from/ knotsBaromVisibWave heightAir tempDewpointWater temp
2016-Feb-06 09:33N 36°04' W 005°15'8 8.3
2016-Feb-06 08:32N 36°06' W 005°25'0 0.1
2016-Feb-06 07:32N 36°06' W 005°25'0 0.0
2016-Feb-06 06:32N 36°06' W 005°25'0 0.0
2016-Feb-06 05:29N 36°06' W 005°25'0 0.1
2016-Feb-06 04:32N 36°06' W 005°25'0 0.0
2016-Feb-06 03:32N 36°06' W 005°25'0 0.0
2016-Feb-06 02:32N 36°06' W 005°25'0 0.0
2016-Feb-06 01:32N 36°06' W 005°25'0 0.0
2016-Feb-06 00:32N 36°06' W 005°25'0 0.0
2016-Feb-05 23:32N 36°06' W 005°25'0 0.0
2016-Feb-05 22:32N 36°06' W 005°25'0 0.0
2016-Feb-05 21:32N 36°06' W 005°25'0 0.4
2016-Feb-05 20:33N 36°06' W 005°25'7 6.6
2016-Feb-05 19:34N 36°05' W 005°17'5 0.1
2016-Feb-04 00:33N 36°06' W 005°10'9 9.4
2016-Feb-03 23:33N 36°06' W 005°22'2 0.9
2016-Feb-03 21:16N 36°06' W 005°24'0 0.1
2016-Feb-03 20:31N 36°06' W 005°24'0 0.1
2016-Feb-03 19:31N 36°06' W 005°24'0 0.1
2016-Feb-03 17:22N 36°06' W 005°24'0 0.1
2016-Feb-03 16:29N 36°06' W 005°24'4 4.6
2016-Feb-03 15:34N 36°02' W 005°24'8313.6
2016-Feb-03 09:26N 36°06' W 007°07'4113.8
2016-Feb-03 06:25N 36°16' W 007°57'1414.5
2016-Feb-03 05:28N 36°19' W 008°13'2613.2
2016-Feb-03 03:31N 36°26' W 008°44'1414.1
2016-Feb-03 02:31N 36°30' W 009°01'1413.0
2016-Feb-03 01:28N 36°34' W 009°17'1313.3
2016-Feb-03 00:31N 36°43' W 009°28'1313.2
2016-Feb-02 23:31N 36°55' W 009°36'1312.6
2016-Feb-02 22:28N 37°08' W 009°39'1514.6
2016-Feb-02 21:28N 37°22' W 009°43'1313.9
2016-Feb-02 20:34N 37°35' W 009°47'1413.5
2016-Feb-02 19:31N 37°48' W 009°50'1514.1
2016-Feb-02 18:25N 38°03' W 009°55'1112.4
2016-Feb-02 17:33N 38°14' W 009°58'1414.2
2016-Feb-02 16:33N 38°28' W 010°02'1414.0
2016-Feb-02 15:33N 38°42' W 010°06'1414.0
2016-Feb-02 14:33N 38°55' W 010°07'1414.0
2016-Feb-02 13:33N 39°09' W 010°07'1413.8
2016-Feb-02 12:33N 39°23' W 010°07'1914.9
2016-Feb-02 11:19N 39°42' W 010°07'912.3
2016-Feb-02 10:33N 39°51' W 010°07'1514.3
2016-Feb-02 09:31N 40°06' W 010°07'1414.1
2016-Feb-02 08:31N 40°20' W 010°07'1414.2
2016-Feb-02 07:31N 40°34' W 010°07'1413.4
2016-Feb-02 06:28N 40°48' W 010°07'1513.1
2016-Feb-02 05:20N 41°03' W 010°07'1113.7
2016-Feb-02 04:32N 41°14' W 010°08'1514.6
2016-Feb-02 03:31N 41°29' W 010°08'1413.1
2016-Feb-02 02:28N 41°42' W 010°09'1313.7
2016-Feb-02 01:33N 41°55' W 010°09'  
2016-Jan-30 12:32N 50°26' W 000°30'9 9.6
2016-Jan-30 11:33N 50°30' W 000°17'1110.3
2016-Jan-30 10:31N 50°33' W 000°00'1111.1
2016-Jan-30 09:33N 50°36' E 000°16'1211.9
2016-Jan-30 08:33N 50°39' E 000°34'1211.7
2016-Jan-30 07:33N 50°45' E 000°49'1111.0
2016-Jan-30 06:32N 50°52' E 001°03'9 9.6
2016-Jan-30 05:33N 50°58' E 001°15'7 7.4
2016-Jan-30 04:33N 51°03' E 001°23'6 6.4
2016-Jan-30 03:33N 51°07' E 001°32'7 7.0
2016-Jan-30 02:33N 51°11' E 001°41'9 8.6
2016-Jan-30 01:33N 51°18' E 001°49'1110.9
2016-Jan-30 00:33N 51°29' E 001°51'1212.1
2016-Jan-29 23:33N 51°40' E 001°46'1211.6
2016-Jan-29 22:33N 51°51' E 001°40'7 6.6
2016-Jan-29 21:33N 51°47' E 001°32'1312.8
2016-Jan-29 20:34N 51°37' E 001°19'1413.5
2016-Jan-29 19:33N 51°30' E 001°00'1413.7
2016-Jan-29 18:34N 51°30' E 000°39'1110.7
2016-Jan-29 17:34N 51°27' E 000°22'2 1.7
2016-Jan-29 16:34N 51°28' E 000°20'0 0.0
2016-Jan-29 15:34N 51°28' E 000°20'0 0.0
2016-Jan-29 14:34N 51°28' E 000°20'0 0.0
2016-Jan-29 13:34N 51°28' E 000°20'0 0.0
2016-Jan-29 12:34N 51°28' E 000°20'0 0.0
2016-Jan-29 11:34N 51°28' E 000°20'0 0.0
2016-Jan-29 10:34N 51°28' E 000°20'0 0.0
2016-Jan-29 09:34N 51°28' E 000°20'0 0.0
2016-Jan-29 08:33N 51°28' E 000°20'0 0.0
2016-Jan-29 07:34N 51°28' E 000°20'0 0.0
2016-Jan-29 06:34N 51°28' E 000°20'0 0.0
2016-Jan-29 05:34N 51°28' E 000°20'0 0.0
2016-Jan-29 04:33N 51°28' E 000°20'0 0.0
2016-Jan-29 03:33N 51°28' E 000°20'0 0.0
2016-Jan-29 02:34N 51°28' E 000°20'0 0.0
2016-Jan-29 01:34N 51°28' E 000°20'0 0.0
2016-Jan-29 00:33N 51°28' E 000°20'0 0.0
2016-Jan-28 23:34N 51°28' E 000°20'0 0.0
2016-Jan-28 22:34N 51°28' E 000°20'0 0.0
2016-Jan-28 21:34N 51°28' E 000°20'0 0.0
2016-Jan-28 20:34N 51°28' E 000°20'0 0.0
2016-Jan-28 19:33N 51°28' E 000°20'0 0.0
2016-Jan-28 18:34N 51°28' E 000°20'0 0.0
2016-Jan-28 17:34N 51°28' E 000°20'0 0.0
2016-Jan-28 16:34N 51°28' E 000°20'0 0.0
2016-Jan-28 15:34N 51°28' E 000°20'0 0.0
2016-Jan-28 14:34N 51°28' E 000°20'0 0.0
2016-Jan-28 13:34N 51°28' E 000°20'0 0.0
2016-Jan-28 12:34N 51°28' E 000°20'0 0.0
2016-Jan-28 11:34N 51°28' E 000°20'0 0.0
2016-Jan-28 10:34N 51°28' E 000°20'0 0.0
2016-Jan-28 09:34N 51°28' E 000°20'0 0.0
2016-Jan-28 08:34N 51°28' E 000°20'0 0.0
2016-Jan-28 07:34N 51°28' E 000°20'0 0.0
2016-Jan-28 06:34N 51°28' E 000°20'0 0.0
2016-Jan-28 05:34N 51°28' E 000°20'0 0.0
2016-Jan-28 04:34N 51°28' E 000°20'0 0.0
2016-Jan-28 03:34N 51°28' E 000°20'0 0.0
2016-Jan-28 02:34N 51°28' E 000°20'0 0.0
2016-Jan-28 01:33N 51°28' E 000°20'0 0.0
2016-Jan-28 00:33N 51°28' E 000°20'0 0.0
2016-Jan-27 23:34N 51°28' E 000°20'0 0.0
2016-Jan-27 22:34N 51°28' E 000°20'0 0.0
2016-Jan-27 21:34N 51°28' E 000°20'0 0.0
2016-Jan-27 20:34N 51°28' E 000°20'0 0.0
2016-Jan-27 19:34N 51°28' E 000°20'0 0.0
2016-Jan-27 18:34N 51°28' E 000°20'0 0.0
2016-Jan-27 17:33N 51°28' E 000°20'0 0.0
2016-Jan-27 16:33N 51°28' E 000°20'0 0.0
2016-Jan-27 15:34N 51°28' E 000°20'0 0.0
2016-Jan-27 14:34N 51°28' E 000°20'0 0.0
2016-Jan-27 13:34N 51°28' E 000°20'0 0.0
2016-Jan-27 12:34N 51°28' E 000°20'0 0.0
2016-Jan-27 11:34N 51°28' E 000°20'0 0.0
2016-Jan-27 10:34N 51°28' E 000°20'0 0.0
2016-Jan-27 09:33N 51°28' E 000°20'  

Dump ship's entire track history